createdAt,value
2023-04-28T00:00:13.004Z,61.10
2023-04-28T00:01:17.360Z,61.12
2023-04-28T00:02:21.720Z,61.13
2023-04-28T00:03:24.918Z,61.16
2023-04-28T00:04:27.563Z,61.19
2023-04-28T00:05:30.197Z,61.11
2023-04-28T00:06:32.313Z,61.11
2023-04-28T00:07:34.439Z,61.15
2023-04-28T00:08:36.923Z,61.11
2023-04-28T00:09:39.087Z,61.11
2023-04-28T00:10:41.560Z,61.11
2023-04-28T00:11:46.729Z,61.11
2023-04-28T00:12:48.945Z,61.07
2023-04-28T00:13:51.208Z,61.15
2023-04-28T00:14:53.407Z,61.13
2023-04-28T00:15:56.008Z,61.05
2023-04-28T00:16:58.655Z,61.13
2023-04-28T00:18:00.899Z,61.15
2023-04-28T00:19:03.134Z,61.23
2023-04-28T00:20:06.930Z,61.16
2023-04-28T00:21:09.496Z,61.21
2023-04-28T00:22:11.669Z,61.21
2023-04-28T00:23:13.873Z,61.16
2023-04-28T00:24:16.106Z,61.11
2023-04-28T00:25:18.493Z,61.07
2023-04-28T00:26:20.540Z,61.04
2023-04-28T00:27:23.330Z,61.05
2023-04-28T00:29:29.967Z,61.14
2023-04-28T00:30:32.606Z,61.10
2023-04-28T00:31:35.315Z,61.05
2023-04-28T00:32:37.927Z,61.08
2023-04-28T00:33:40.757Z,61.04
2023-04-28T00:34:43.467Z,60.97
2023-04-28T00:35:45.743Z,60.80
2023-04-28T00:36:48.381Z,60.87
2023-04-28T00:37:50.456Z,60.81
2023-04-28T00:38:53.323Z,60.86
2023-04-28T00:39:56.121Z,60.81
2023-04-28T00:40:58.570Z,60.74
2023-04-28T00:42:00.631Z,60.81
2023-04-28T00:43:03.686Z,60.75
2023-04-28T00:44:06.096Z,60.78
2023-04-28T00:45:08.990Z,60.83
2023-04-28T00:46:28.655Z,60.82
2023-04-28T00:47:33.535Z,60.83
2023-04-28T00:48:36.090Z,60.75
2023-04-28T00:49:38.756Z,60.70
2023-04-28T00:50:43.030Z,60.70
2023-04-28T00:51:45.768Z,60.70
2023-04-28T00:52:48.226Z,60.56
2023-04-28T00:53:51.092Z,60.52
2023-04-28T00:54:54.871Z,60.51
2023-04-28T00:55:57.914Z,60.59
2023-04-28T00:57:01.837Z,60.58
2023-04-28T00:58:07.927Z,60.44
2023-04-28T00:59:10.251Z,60.43
2023-04-28T01:00:13.398Z,60.48
2023-04-28T01:01:15.777Z,60.52
2023-04-28T01:02:18.183Z,60.41
2023-04-28T01:03:21.620Z,60.56
2023-04-28T01:04:24.868Z,60.52
2023-04-28T01:05:28.836Z,60.57
2023-04-28T01:06:32.900Z,60.60
2023-04-28T01:07:35.494Z,60.59
2023-04-28T01:08:38.529Z,60.57
2023-04-28T01:09:42.417Z,60.53
2023-04-28T01:10:44.902Z,60.50
2023-04-28T01:11:48.898Z,60.60
2023-04-28T01:12:55.499Z,60.52
2023-04-28T01:13:58.176Z,60.56
2023-04-28T01:15:02.578Z,60.61
2023-04-28T01:16:06.852Z,60.66
2023-04-28T01:17:09.955Z,60.58
2023-04-28T01:18:12.763Z,60.65
2023-04-28T01:19:18.868Z,60.67
2023-04-28T01:20:21.479Z,60.66
2023-04-28T01:21:28.120Z,60.65
2023-04-28T01:22:30.830Z,60.70
2023-04-28T01:23:33.039Z,60.59
2023-04-28T01:24:35.302Z,60.60
2023-04-28T01:25:40.041Z,60.59
2023-04-28T01:26:43.757Z,60.54
2023-04-28T01:27:46.627Z,60.60
2023-04-28T01:28:50.615Z,60.57
2023-04-28T01:29:53.035Z,60.63
2023-04-28T01:30:55.163Z,60.58
2023-04-28T01:31:57.884Z,60.63
2023-04-28T01:33:00.564Z,60.54
2023-04-28T01:34:02.972Z,60.47
2023-04-28T01:35:05.587Z,60.54
2023-04-28T01:36:10.501Z,60.58
2023-04-28T01:37:12.752Z,60.46
2023-04-28T01:38:14.813Z,60.46
2023-04-28T01:39:17.388Z,60.45
2023-04-28T01:40:19.677Z,60.50
2023-04-28T01:41:21.824Z,60.43
2023-04-28T01:42:24.604Z,60.50
2023-04-28T01:43:26.572Z,60.52
2023-04-28T01:44:28.822Z,60.47
2023-04-28T01:45:31.497Z,60.46
2023-04-28T01:46:34.614Z,60.50
2023-04-28T01:47:37.175Z,60.47
2023-04-28T01:48:39.596Z,60.46
2023-04-28T01:49:41.783Z,60.46
2023-04-28T01:50:45.904Z,60.42
2023-04-28T01:51:51.748Z,60.32
2023-04-28T01:52:54.069Z,60.24
2023-04-28T01:53:58.030Z,60.31
2023-04-28T01:55:00.799Z,60.31
2023-04-28T01:56:03.605Z,60.33
2023-04-28T01:57:05.723Z,60.31
2023-04-28T01:59:17.374Z,60.27
2023-04-28T02:00:20.255Z,60.35
2023-04-28T02:01:26.951Z,60.34
2023-04-28T02:02:30.968Z,60.28
2023-04-28T02:03:34.131Z,60.28
2023-04-28T02:04:39.099Z,60.28
2023-04-28T02:05:43.198Z,60.25
2023-04-28T02:06:46.479Z,60.10
2023-04-28T02:07:48.801Z,60.17
2023-04-28T02:08:51.091Z,60.13
2023-04-28T02:09:53.886Z,59.98
2023-04-28T02:10:57.366Z,59.97
2023-04-28T02:12:00.402Z,60.02
2023-04-28T02:13:03.078Z,60.13
2023-04-28T02:14:05.268Z,60.10
2023-04-28T02:15:08.366Z,60.19
2023-04-28T02:16:11.011Z,60.24
2023-04-28T02:18:22.687Z,60.36
2023-04-28T02:19:24.948Z,60.39
2023-04-28T02:20:27.230Z,60.38
2023-04-28T02:21:30.688Z,60.19
2023-04-28T02:22:33.025Z,60.19
2023-04-28T02:23:35.316Z,60.21
2023-04-28T02:24:39.912Z,60.29
2023-04-28T02:25:42.467Z,60.11
2023-04-28T02:26:46.776Z,60.01
2023-04-28T02:27:49.152Z,60.06
2023-04-28T02:28:52.578Z,60.15
2023-04-28T02:29:55.038Z,60.46
2023-04-28T02:31:10.765Z,61.64
2023-04-28T02:32:13.650Z,62.56
2023-04-28T02:33:15.891Z,63.70
2023-04-28T02:34:18.101Z,65.19
2023-04-28T02:35:20.847Z,66.10
2023-04-28T02:36:23.148Z,66.59
2023-04-28T02:37:25.534Z,67.03
2023-04-28T02:38:27.810Z,67.90
2023-04-28T02:39:30.779Z,68.22
2023-04-28T02:40:33.606Z,68.69
2023-04-28T02:41:35.828Z,69.43
2023-04-28T02:42:38.560Z,69.22
2023-04-28T02:43:41.110Z,69.09
2023-04-28T02:44:43.856Z,68.72
2023-04-28T02:45:45.970Z,68.55
2023-04-28T02:46:48.316Z,68.19
2023-04-28T02:47:51.279Z,67.78
2023-04-28T02:48:53.689Z,67.39
2023-04-28T02:49:55.883Z,66.99
2023-04-28T02:50:58.399Z,66.49
2023-04-28T02:52:00.753Z,66.12
2023-04-28T02:53:03.873Z,66.01
2023-04-28T02:54:06.763Z,65.74
2023-04-28T02:55:09.090Z,65.34
2023-04-28T02:56:11.868Z,65.11
2023-04-28T02:57:14.670Z,65.12
2023-04-28T02:58:17.033Z,65.03
2023-04-28T02:59:19.607Z,64.83
2023-04-28T03:00:21.936Z,64.76
2023-04-28T03:01:24.978Z,64.65
2023-04-28T03:02:27.616Z,64.45
2023-04-28T03:03:30.456Z,64.41
2023-04-28T03:04:33.261Z,64.39
2023-04-28T03:05:35.877Z,64.28
2023-04-28T03:06:38.157Z,64.10
2023-04-28T03:07:40.804Z,63.80
2023-04-28T03:08:43.475Z,63.73
2023-04-28T03:09:46.295Z,63.65
2023-04-28T03:10:48.566Z,63.58
2023-04-28T03:11:51.393Z,63.52
2023-04-28T03:12:53.626Z,63.68
2023-04-28T03:13:56.523Z,63.60
2023-04-28T03:14:59.216Z,63.16
2023-04-28T03:16:01.511Z,63.13
2023-04-28T03:17:03.703Z,63.04
2023-04-28T03:18:06.184Z,62.89
2023-04-28T03:19:08.540Z,62.90
2023-04-28T03:20:12.156Z,62.76
2023-04-28T03:21:14.885Z,62.72
2023-04-28T03:22:17.292Z,62.64
2023-04-28T03:23:20.153Z,62.67
2023-04-28T03:24:22.362Z,62.68
2023-04-28T03:25:26.311Z,62.67
2023-04-28T03:26:29.162Z,62.66
2023-04-28T03:27:31.485Z,62.61
2023-04-28T03:28:33.933Z,62.45
2023-04-28T03:29:36.684Z,62.38
2023-04-28T03:30:39.964Z,62.41
2023-04-28T03:31:42.691Z,62.35
2023-04-28T03:32:45.072Z,62.16
2023-04-28T03:33:47.325Z,62.26
2023-04-28T03:34:50.942Z,62.16
2023-04-28T03:35:53.820Z,62.20
2023-04-28T03:36:56.236Z,62.21
2023-04-28T03:38:00.214Z,62.21
2023-04-28T03:39:02.900Z,62.13
2023-04-28T03:40:08.617Z,62.15
2023-04-28T03:41:30.769Z,62.29
2023-04-28T03:42:50.950Z,62.07
2023-04-28T03:43:55.341Z,61.94
2023-04-28T03:45:02.288Z,61.71
2023-04-28T03:47:14.848Z,61.73
2023-04-28T03:48:16.954Z,61.76
2023-04-28T03:49:19.347Z,61.58
2023-04-28T03:50:21.694Z,61.58
2023-04-28T03:52:33.811Z,61.53
2023-04-28T03:53:35.881Z,61.52
2023-04-28T03:54:38.081Z,61.70
2023-04-28T03:55:41.017Z,61.48
2023-04-28T03:56:56.753Z,61.19
2023-04-28T03:57:58.981Z,60.90
2023-04-28T03:59:01.619Z,61.05
2023-04-28T04:00:10.692Z,61.16
2023-04-28T04:01:14.800Z,61.09
2023-04-28T04:02:17.124Z,60.93
2023-04-28T04:03:20.220Z,61.13
2023-04-28T04:05:32.461Z,61.10
2023-04-28T04:07:45.461Z,61.08
2023-04-28T04:08:48.292Z,61.24
2023-04-28T04:09:51.568Z,61.20
2023-04-28T04:10:53.725Z,61.28
2023-04-28T04:11:55.993Z,61.18
2023-04-28T04:12:59.015Z,61.10
2023-04-28T04:15:11.094Z,60.97
2023-04-28T04:16:13.944Z,60.85
2023-04-28T04:17:16.290Z,60.97
2023-04-28T04:18:18.557Z,60.97
2023-04-28T04:19:39.691Z,61.01
2023-04-28T04:20:42.061Z,60.72
2023-04-28T04:21:44.329Z,60.84
2023-04-28T04:22:46.390Z,60.48
2023-04-28T04:23:49.343Z,60.55
2023-04-28T04:24:52.595Z,60.44
2023-04-28T04:25:55.371Z,60.50
2023-04-28T04:26:58.645Z,60.39
2023-04-28T04:28:05.460Z,60.27
2023-04-28T04:29:08.506Z,60.38
2023-04-28T04:30:11.569Z,60.28
2023-04-28T04:31:14.221Z,60.44
2023-04-28T04:32:16.403Z,60.45
2023-04-28T04:33:18.664Z,60.41
2023-04-28T04:34:21.052Z,60.40
2023-04-28T04:35:23.323Z,60.28
2023-04-28T04:36:26.357Z,60.32
2023-04-28T04:37:29.047Z,60.18
2023-04-28T04:38:35.587Z,60.14
2023-04-28T04:39:39.710Z,60.06
2023-04-28T04:40:41.861Z,59.89
2023-04-28T04:41:45.672Z,59.94
2023-04-28T04:44:00.661Z,59.81
2023-04-28T04:45:06.665Z,59.82
2023-04-28T04:46:08.982Z,59.86
2023-04-28T04:47:11.330Z,59.77
2023-04-28T04:48:13.667Z,59.82
2023-04-28T04:49:17.009Z,59.75
2023-04-28T04:50:19.950Z,59.99
2023-04-28T04:51:22.246Z,59.93
2023-04-28T04:52:24.982Z,59.58
2023-04-28T04:53:27.231Z,59.52
2023-04-28T04:54:30.880Z,59.39
2023-04-28T04:55:33.558Z,59.46
2023-04-28T04:56:36.394Z,59.31
2023-04-28T04:57:40.019Z,59.21
2023-04-28T04:58:44.862Z,58.94
2023-04-28T04:59:49.387Z,58.79
2023-04-28T05:00:53.482Z,58.57
2023-04-28T05:01:56.735Z,58.70
2023-04-28T05:02:59.826Z,58.92
2023-04-28T05:04:02.271Z,59.05
2023-04-28T05:05:19.786Z,58.96
2023-04-28T05:06:11.495Z,59.10
2023-04-28T05:07:19.374Z,59.07
2023-04-28T05:08:21.739Z,59.09
2023-04-28T05:09:23.942Z,59.26
2023-04-28T05:10:26.750Z,59.03
2023-04-28T05:11:29.977Z,58.74
2023-04-28T05:12:32.283Z,58.95
2023-04-28T05:13:35.741Z,59.09
2023-04-28T05:15:48.175Z,59.05
2023-04-28T05:17:01.201Z,58.28
2023-04-28T05:18:05.348Z,58.13
2023-04-28T05:19:09.669Z,57.49
2023-04-28T05:20:12.974Z,57.58
2023-04-28T05:21:15.505Z,57.38
2023-04-28T05:22:17.592Z,56.96
2023-04-28T05:23:20.252Z,56.71
2023-04-28T05:24:23.496Z,56.39
2023-04-28T05:25:27.099Z,56.74
2023-04-28T05:26:30.252Z,56.75
2023-04-28T05:27:34.383Z,57.03
2023-04-28T05:28:36.632Z,56.14
2023-04-28T05:29:38.808Z,56.42
2023-04-28T05:30:40.989Z,56.17
2023-04-28T05:31:43.663Z,56.69
2023-04-28T05:32:45.959Z,56.34
2023-04-28T05:33:48.809Z,55.93
2023-04-28T05:34:50.906Z,55.31
2023-04-28T05:35:53.781Z,55.58
2023-04-28T05:36:56.358Z,55.72
2023-04-28T05:38:00.288Z,55.63
2023-04-28T05:39:02.673Z,55.83
2023-04-28T05:40:06.464Z,55.31
2023-04-28T05:41:09.094Z,55.67
2023-04-28T05:42:11.329Z,56.45
2023-04-28T05:43:14.874Z,55.72
2023-04-28T05:44:19.033Z,56.09
2023-04-28T05:45:21.575Z,56.34
2023-04-28T05:46:30.646Z,55.97
2023-04-28T05:47:28.169Z,55.66
2023-04-28T05:48:31.684Z,55.23
2023-04-28T05:49:35.136Z,54.41
2023-04-28T05:50:39.309Z,53.51
2023-04-28T05:51:41.741Z,52.49
2023-04-28T05:52:43.908Z,51.42
2023-04-28T05:53:46.434Z,50.73
2023-04-28T05:54:49.261Z,50.23
2023-04-28T05:55:51.447Z,49.76
2023-04-28T05:56:54.936Z,49.29
2023-04-28T05:57:57.776Z,48.90
2023-04-28T05:59:00.383Z,48.88
2023-04-28T06:00:03.405Z,48.63
2023-04-28T06:01:07.538Z,48.87
2023-04-28T06:02:09.751Z,49.20
2023-04-28T06:03:13.444Z,49.28
2023-04-28T06:04:17.430Z,49.49
2023-04-28T06:05:21.479Z,49.18
2023-04-28T06:06:26.939Z,49.13
2023-04-28T06:07:29.616Z,49.28
2023-04-28T06:08:32.226Z,49.34
2023-04-28T06:09:34.690Z,49.46
2023-04-28T06:10:37.102Z,49.79
2023-04-28T06:11:39.290Z,49.80
2023-04-28T06:12:41.595Z,49.77
2023-04-28T06:13:43.764Z,49.86
2023-04-28T06:14:46.797Z,50.05
2023-04-28T06:15:48.921Z,50.14
2023-04-28T06:16:51.173Z,50.62
2023-04-28T06:19:03.478Z,50.60
2023-04-28T06:20:07.058Z,50.54
2023-04-28T06:21:09.656Z,50.72
2023-04-28T06:22:12.229Z,50.81
2023-04-28T06:23:15.120Z,50.64
2023-04-28T06:24:22.588Z,50.80
2023-04-28T06:25:26.625Z,50.75
2023-04-28T06:26:29.566Z,50.84
2023-04-28T06:27:32.133Z,50.93
2023-04-28T06:28:34.407Z,50.98
2023-04-28T06:29:36.609Z,51.01
2023-04-28T06:30:38.870Z,51.02
2023-04-28T06:31:41.186Z,50.99
2023-04-28T06:32:43.518Z,51.04
2023-04-28T06:33:45.751Z,51.06
2023-04-28T06:34:48.656Z,50.98
2023-04-28T06:37:07.097Z,50.93
2023-04-28T06:38:09.865Z,50.86
2023-04-28T06:39:12.689Z,50.84
2023-04-28T06:40:15.042Z,50.95
2023-04-28T06:41:19.418Z,51.00
2023-04-28T06:42:23.543Z,50.85
2023-04-28T06:43:33.414Z,50.54
2023-04-28T06:44:38.069Z,50.59
2023-04-28T06:45:41.253Z,50.72
2023-04-28T06:47:54.102Z,51.18
2023-04-28T06:48:56.535Z,51.01
2023-04-28T06:49:58.930Z,51.09
2023-04-28T06:51:01.165Z,51.21
2023-04-28T06:52:03.375Z,51.19
2023-04-28T06:53:06.845Z,51.27
2023-04-28T06:54:10.184Z,51.11
2023-04-28T06:55:15.198Z,50.93
2023-04-28T06:56:17.875Z,50.97
2023-04-28T06:58:29.987Z,50.56
2023-04-28T06:59:32.698Z,50.44
2023-04-28T07:00:35.136Z,50.36
2023-04-28T07:01:37.433Z,50.55
2023-04-28T07:02:39.908Z,49.91
2023-04-28T07:03:42.737Z,49.78
2023-04-28T07:04:45.285Z,49.16
2023-04-28T07:05:47.356Z,49.66
2023-04-28T07:06:49.895Z,49.28
2023-04-28T07:07:54.299Z,49.20
2023-04-28T07:08:56.428Z,49.72
2023-04-28T07:09:58.633Z,49.84
2023-04-28T07:11:00.896Z,50.51
2023-04-28T07:12:03.668Z,51.01
2023-04-28T07:14:15.402Z,52.45
2023-04-28T07:15:18.886Z,52.31
2023-04-28T07:16:21.058Z,52.37
2023-04-28T07:17:23.537Z,52.88
2023-04-28T07:18:26.251Z,53.05
2023-04-28T07:19:28.784Z,52.85
2023-04-28T07:20:30.965Z,52.69
2023-04-28T07:21:33.619Z,52.77
2023-04-28T07:22:35.698Z,52.76
2023-04-28T07:23:38.321Z,52.51
2023-04-28T07:24:40.488Z,52.46
2023-04-28T07:25:43.060Z,52.13
2023-04-28T07:28:03.828Z,52.05
2023-04-28T07:29:05.985Z,52.38
2023-04-28T07:30:24.983Z,52.04
2023-04-28T07:31:13.186Z,51.96
2023-04-28T07:32:15.583Z,51.65
2023-04-28T07:34:28.330Z,51.26
2023-04-28T07:35:30.548Z,51.08
2023-04-28T07:36:32.854Z,51.16
2023-04-28T07:37:36.066Z,51.05
2023-04-28T07:38:38.280Z,50.56
2023-04-28T07:39:41.803Z,50.40
2023-04-28T07:40:44.709Z,49.63
2023-04-28T07:41:46.918Z,49.90
2023-04-28T07:42:49.188Z,49.93
2023-04-28T07:43:52.378Z,49.67
2023-04-28T07:44:54.453Z,49.49
2023-04-28T07:45:56.760Z,49.64
2023-04-28T07:46:59.800Z,49.60
2023-04-28T07:48:02.273Z,49.40
2023-04-28T07:49:04.689Z,49.19
2023-04-28T07:50:09.613Z,49.17
2023-04-28T07:51:11.940Z,49.23
2023-04-28T07:52:14.091Z,48.86
2023-04-28T07:53:17.479Z,48.84
2023-04-28T07:54:19.882Z,48.70
2023-04-28T07:55:22.579Z,48.42
2023-04-28T07:56:24.932Z,48.42
2023-04-28T07:57:27.503Z,48.22
2023-04-28T07:58:31.628Z,48.12
2023-04-28T07:59:34.698Z,47.88
2023-04-28T08:00:38.630Z,47.66
2023-04-28T08:01:41.446Z,47.44
2023-04-28T08:02:43.661Z,47.08
2023-04-28T08:03:46.419Z,46.98
2023-04-28T08:04:54.380Z,45.21
2023-04-28T08:05:58.534Z,46.15
2023-04-28T08:07:02.363Z,46.40
2023-04-28T08:08:07.893Z,45.76
2023-04-28T08:09:13.120Z,45.64
2023-04-28T08:10:19.648Z,45.01
2023-04-28T08:11:22.299Z,45.64
2023-04-28T08:12:24.413Z,46.11
2023-04-28T08:13:27.364Z,44.23
2023-04-28T08:14:33.181Z,45.72
2023-04-28T08:15:35.864Z,44.62
2023-04-28T08:16:38.946Z,45.25
2023-04-28T08:17:45.884Z,44.26
2023-04-28T08:18:48.184Z,43.51
2023-04-28T08:19:51.250Z,45.22
2023-04-28T08:20:54.626Z,44.90
2023-04-28T08:21:56.697Z,44.67
2023-04-28T08:22:59.343Z,45.08
2023-04-28T08:24:01.452Z,45.30
2023-04-28T08:25:06.028Z,45.08
2023-04-28T08:26:08.595Z,44.82
2023-04-28T08:27:11.364Z,44.72
2023-04-28T08:28:14.005Z,44.89
2023-04-28T08:29:19.060Z,43.82
2023-04-28T08:30:25.309Z,43.30
2023-04-28T08:31:28.199Z,44.03
2023-04-28T08:33:50.055Z,43.02
2023-04-28T08:34:54.374Z,42.37
2023-04-28T08:35:57.180Z,40.26
2023-04-28T08:37:01.231Z,40.81
2023-04-28T08:38:04.745Z,41.24
2023-04-28T08:39:07.685Z,42.23
2023-04-28T08:40:13.540Z,42.74
2023-04-28T08:41:17.500Z,43.12
2023-04-28T08:42:20.004Z,43.18
2023-04-28T08:43:22.940Z,43.30
2023-04-28T08:44:28.683Z,43.54
2023-04-28T08:45:32.755Z,43.54
2023-04-28T08:46:36.789Z,43.24
2023-04-28T08:47:44.199Z,43.46
2023-04-28T08:48:48.988Z,43.57
2023-04-28T08:49:53.398Z,43.07
2023-04-28T08:50:58.375Z,43.26
2023-04-28T08:52:00.970Z,43.60
2023-04-28T08:53:04.061Z,43.65
2023-04-28T08:55:13.735Z,43.53
2023-04-28T08:56:17.959Z,41.83
2023-04-28T08:57:20.432Z,42.14
2023-04-28T08:58:24.003Z,42.22
2023-04-28T08:59:26.462Z,42.32
2023-04-28T09:00:29.174Z,43.35
2023-04-28T09:01:32.946Z,43.21
2023-04-28T09:02:36.651Z,43.77
2023-04-28T09:03:40.058Z,44.12
2023-04-28T09:04:43.102Z,44.02
2023-04-28T09:05:46.480Z,43.93
2023-04-28T09:06:50.544Z,44.17
2023-04-28T09:07:53.821Z,44.11
2023-04-28T09:10:19.501Z,44.00
2023-04-28T09:11:23.901Z,43.46
2023-04-28T09:13:40.873Z,44.16
2023-04-28T09:14:44.042Z,44.14
2023-04-28T09:15:48.026Z,43.99
2023-04-28T09:16:50.777Z,44.32
2023-04-28T09:17:54.166Z,44.20
2023-04-28T09:18:57.675Z,44.44
2023-04-28T09:20:04.189Z,44.43
2023-04-28T09:21:12.441Z,44.34
2023-04-28T09:23:24.874Z,44.26
2023-04-28T09:24:52.961Z,44.42
2023-04-28T09:27:21.701Z,44.52
2023-04-28T09:28:24.755Z,44.60
2023-04-28T09:29:34.800Z,44.63
2023-04-28T09:30:39.418Z,44.46
2023-04-28T09:31:41.783Z,44.49
2023-04-28T09:33:04.414Z,44.49
2023-04-28T09:34:08.409Z,44.40
2023-04-28T09:35:14.022Z,44.29
2023-04-28T09:36:20.203Z,44.44
2023-04-28T09:37:29.711Z,44.55
2023-04-28T09:38:39.500Z,44.31
2023-04-28T09:39:44.991Z,44.30
2023-04-28T09:42:34.278Z,44.24
2023-04-28T09:43:39.695Z,44.20
2023-04-28T09:44:48.790Z,43.62
2023-04-28T09:45:50.993Z,42.69
2023-04-28T09:46:53.534Z,40.99
2023-04-28T09:47:59.649Z,42.37
2023-04-28T09:49:03.257Z,42.66
2023-04-28T09:50:07.820Z,43.11
2023-04-28T09:51:19.369Z,43.09
2023-04-28T09:52:22.841Z,43.06
2023-04-28T09:53:27.996Z,43.13
2023-04-28T09:54:30.634Z,43.21
2023-04-28T09:55:38.777Z,43.14
2023-04-28T09:56:44.405Z,41.21
2023-04-28T09:57:50.400Z,42.41
2023-04-28T09:58:53.531Z,43.18
2023-04-28T10:00:00.506Z,43.27
2023-04-28T10:01:06.643Z,43.32
2023-04-28T10:02:28.809Z,42.95
2023-04-28T10:03:17.215Z,42.45
2023-04-28T10:04:21.924Z,43.14
2023-04-28T10:05:26.076Z,42.47
2023-04-28T10:06:38.974Z,42.50
2023-04-28T10:07:42.013Z,42.79
2023-04-28T10:08:44.233Z,42.72
2023-04-28T10:09:51.927Z,42.73
2023-04-28T10:10:57.513Z,42.99
2023-04-28T10:12:01.577Z,42.31
2023-04-28T10:13:08.119Z,42.52
2023-04-28T10:14:11.663Z,41.65
2023-04-28T10:15:16.866Z,41.73
2023-04-28T10:16:21.070Z,40.66
2023-04-28T10:17:23.806Z,41.15
2023-04-28T10:18:30.763Z,42.23
2023-04-28T10:19:35.168Z,42.79
2023-04-28T10:20:45.232Z,42.61
2023-04-28T10:21:52.372Z,42.87
2023-04-28T10:23:33.930Z,42.59
2023-04-28T10:25:55.834Z,39.68
2023-04-28T10:27:06.095Z,41.46
2023-04-28T10:28:09.881Z,42.97
2023-04-28T10:29:12.586Z,41.99
2023-04-28T10:30:28.103Z,43.05
2023-04-28T10:32:44.329Z,43.68
2023-04-28T10:33:48.106Z,41.55
2023-04-28T10:34:50.725Z,42.76
2023-04-28T10:35:53.519Z,43.46
2023-04-28T10:36:56.753Z,43.87
2023-04-28T10:38:05.554Z,43.70
2023-04-28T10:39:10.117Z,42.81
2023-04-28T10:40:34.639Z,44.01
2023-04-28T10:41:40.930Z,43.69
2023-04-28T10:42:56.735Z,43.27
2023-04-28T10:45:13.529Z,40.27
2023-04-28T10:46:17.889Z,40.06
2023-04-28T10:47:20.089Z,40.03
2023-04-28T10:48:31.842Z,39.11
2023-04-28T10:49:56.307Z,40.91
2023-04-28T10:52:40.178Z,40.20
2023-04-28T10:53:46.797Z,40.31
2023-04-28T10:55:28.225Z,40.85
2023-04-28T10:56:31.401Z,41.52
2023-04-28T10:57:33.577Z,40.21
2023-04-28T10:59:49.526Z,39.15
2023-04-28T11:00:53.916Z,39.98
2023-04-28T11:01:59.775Z,37.83
2023-04-28T11:03:02.149Z,36.85
2023-04-28T11:04:08.577Z,39.22
2023-04-28T11:05:12.578Z,36.75
2023-04-28T11:06:33.331Z,36.57
2023-04-28T11:07:35.457Z,35.27
2023-04-28T11:08:37.930Z,37.92
2023-04-28T11:09:43.983Z,38.42
2023-04-28T11:11:11.383Z,36.29
2023-04-28T11:12:13.714Z,35.61
2023-04-28T11:15:02.262Z,35.82
2023-04-28T11:16:05.037Z,38.08
2023-04-28T11:17:11.538Z,37.88
2023-04-28T11:18:15.623Z,35.96
2023-04-28T11:19:23.475Z,35.26
2023-04-28T11:20:27.329Z,34.93
2023-04-28T11:21:30.678Z,36.14
2023-04-28T11:22:34.011Z,37.85
2023-04-28T11:23:36.435Z,36.70
2023-04-28T11:24:38.711Z,36.19
2023-04-28T11:25:56.613Z,36.04
2023-04-28T11:26:59.453Z,35.81
2023-04-28T11:28:04.869Z,36.30
2023-04-28T11:29:07.718Z,35.98
2023-04-28T11:30:21.062Z,35.52
2023-04-28T11:31:25.126Z,35.50
2023-04-28T11:33:42.066Z,36.04
2023-04-28T11:34:47.865Z,35.49
2023-04-28T11:35:51.198Z,35.63
2023-04-28T11:36:54.976Z,34.71
2023-04-28T11:38:03.559Z,36.04
2023-04-28T11:39:08.110Z,35.62
2023-04-28T11:40:12.251Z,36.39
2023-04-28T11:41:14.532Z,35.98
2023-04-28T11:42:16.582Z,36.10
2023-04-28T11:43:22.336Z,35.13
2023-04-28T11:44:27.190Z,35.70
2023-04-28T11:45:31.760Z,35.43
2023-04-28T11:46:33.986Z,35.40
2023-04-28T11:47:36.184Z,36.09
2023-04-28T11:48:38.561Z,35.56
2023-04-28T11:49:45.630Z,35.90
2023-04-28T11:50:48.935Z,36.06
2023-04-28T11:51:51.632Z,35.12
2023-04-28T11:52:54.080Z,35.64
2023-04-28T11:53:56.939Z,35.50
2023-04-28T11:55:00.387Z,35.53
2023-04-28T11:56:06.693Z,34.98
2023-04-28T11:57:20.914Z,35.36
2023-04-28T11:58:23.462Z,35.24
2023-04-28T11:59:30.581Z,35.60
2023-04-28T12:00:33.300Z,35.99
2023-04-28T12:01:56.321Z,35.30
2023-04-28T12:03:05.185Z,35.89
2023-04-28T12:05:21.226Z,36.16
2023-04-28T12:06:24.615Z,35.65
2023-04-28T12:07:26.690Z,35.86
2023-04-28T12:08:33.491Z,36.25
2023-04-28T12:09:40.028Z,35.87
2023-04-28T12:10:52.012Z,35.70
2023-04-28T12:12:00.907Z,35.67
2023-04-28T12:13:17.426Z,35.94
2023-04-28T12:14:22.143Z,35.68
2023-04-28T12:15:32.113Z,35.85
2023-04-28T12:16:42.285Z,36.16
2023-04-28T12:17:44.671Z,36.29
2023-04-28T12:18:58.495Z,36.01
2023-04-28T12:20:05.634Z,35.80
2023-04-28T12:21:11.391Z,35.35
2023-04-28T12:22:15.277Z,35.70
2023-04-28T12:23:38.943Z,35.24
2023-04-28T12:24:41.187Z,35.48
2023-04-28T12:25:46.004Z,35.76
2023-04-28T12:26:49.650Z,35.91
2023-04-28T12:28:07.154Z,35.96
2023-04-28T12:29:09.990Z,35.78
2023-04-28T12:30:22.867Z,35.68
2023-04-28T12:31:25.214Z,36.52
2023-04-28T12:33:51.675Z,36.07
2023-04-28T12:34:54.098Z,36.99
2023-04-28T12:35:57.505Z,36.88
2023-04-28T12:38:12.543Z,36.49
2023-04-28T12:39:15.126Z,36.57
2023-04-28T12:40:17.396Z,36.51
2023-04-28T12:41:19.448Z,36.83
2023-04-28T12:42:21.739Z,37.16
2023-04-28T12:43:24.739Z,36.79
2023-04-28T12:44:26.851Z,36.75
2023-04-28T12:45:30.721Z,36.73
2023-04-28T12:46:32.955Z,36.82
2023-04-28T12:47:35.896Z,36.11
2023-04-28T12:48:38.549Z,36.24
2023-04-28T12:49:41.003Z,37.26
2023-04-28T12:50:43.331Z,37.64
2023-04-28T12:51:45.484Z,36.75
2023-04-28T12:52:47.731Z,36.45
2023-04-28T12:53:56.312Z,36.24
2023-04-28T12:56:11.876Z,36.10
2023-04-28T12:58:34.764Z,36.84
2023-04-28T12:59:36.925Z,35.81
2023-04-28T13:00:39.549Z,36.04
2023-04-28T13:01:41.632Z,36.71
2023-04-28T13:02:44.415Z,36.66
2023-04-28T13:03:48.233Z,36.30
2023-04-28T13:04:51.060Z,36.59
2023-04-28T13:05:54.064Z,36.37
2023-04-28T13:06:57.124Z,36.60
2023-04-28T13:07:59.614Z,36.41
2023-04-28T13:09:02.416Z,36.48
2023-04-28T13:10:05.925Z,36.38
2023-04-28T13:11:22.006Z,36.62
2023-04-28T13:12:13.881Z,36.33
2023-04-28T13:13:16.638Z,36.27
2023-04-28T13:14:22.314Z,36.04
2023-04-28T13:15:24.433Z,35.96
2023-04-28T13:16:26.611Z,36.11
2023-04-28T13:17:29.918Z,35.71
2023-04-28T13:18:33.251Z,35.65
2023-04-28T13:19:35.451Z,36.20
2023-04-28T13:20:39.361Z,36.58
2023-04-28T13:21:41.413Z,36.44
2023-04-28T13:22:43.717Z,35.94
2023-04-28T13:23:45.873Z,36.20
2023-04-28T13:24:48.636Z,36.38
2023-04-28T13:25:51.640Z,36.50
2023-04-28T13:26:53.710Z,36.22
2023-04-28T13:27:55.927Z,37.09
2023-04-28T13:28:58.646Z,36.34
2023-04-28T13:30:10.590Z,36.61
2023-04-28T13:31:16.996Z,36.60
2023-04-28T13:32:19.149Z,36.71
2023-04-28T13:33:21.320Z,36.68
2023-04-28T13:34:24.569Z,37.15
2023-04-28T13:35:29.077Z,36.42
2023-04-28T13:36:33.801Z,36.89
2023-04-28T13:37:36.082Z,36.34
2023-04-28T13:38:40.024Z,36.74
2023-04-28T13:39:42.933Z,36.56
2023-04-28T13:40:46.909Z,36.65
2023-04-28T13:41:49.856Z,36.35
2023-04-28T13:42:52.616Z,36.35
2023-04-28T13:43:54.782Z,36.58
2023-04-28T13:44:57.297Z,36.72
2023-04-28T13:46:01.889Z,36.90
2023-04-28T13:47:05.161Z,36.75
2023-04-28T13:48:20.256Z,37.22
2023-04-28T13:50:34.654Z,37.18
2023-04-28T13:51:37.072Z,36.73
2023-04-28T13:52:39.353Z,37.10
2023-04-28T13:53:44.943Z,37.37
2023-04-28T13:54:47.295Z,36.79
2023-04-28T13:55:53.762Z,36.29
2023-04-28T13:56:58.528Z,36.36
2023-04-28T13:58:02.666Z,35.61
2023-04-28T13:59:06.735Z,36.25
2023-04-28T14:00:12.860Z,36.13
2023-04-28T14:01:15.416Z,35.99
2023-04-28T14:02:19.714Z,35.94
2023-04-28T14:03:23.822Z,35.88
2023-04-28T14:04:30.828Z,35.92
2023-04-28T14:06:52.924Z,35.89
2023-04-28T14:07:56.831Z,35.98
2023-04-28T14:09:02.454Z,36.21
2023-04-28T14:10:06.866Z,36.22
2023-04-28T14:11:10.515Z,36.17
2023-04-28T14:12:15.118Z,35.92
2023-04-28T14:13:19.890Z,35.46
2023-04-28T14:14:24.045Z,35.84
2023-04-28T14:15:26.154Z,35.29
2023-04-28T14:16:28.855Z,35.70
2023-04-28T14:17:31.014Z,35.70
2023-04-28T14:18:33.387Z,35.78
2023-04-28T14:19:37.689Z,35.89
2023-04-28T14:20:40.964Z,35.88
2023-04-28T14:21:46.946Z,36.40
2023-04-28T14:22:50.633Z,35.61
2023-04-28T14:23:52.917Z,35.74
2023-04-28T14:24:58.345Z,35.82
2023-04-28T14:26:01.866Z,35.92
2023-04-28T14:27:04.148Z,35.80
2023-04-28T14:28:06.391Z,35.97
2023-04-28T14:29:10.031Z,36.07
2023-04-28T14:30:13.718Z,36.33
2023-04-28T14:31:18.078Z,36.14
2023-04-28T14:32:22.639Z,36.19